createdAt,value
2023-05-17T00:02:17.056Z,9.27
2023-05-17T00:04:45.318Z,9.18
2023-05-17T00:07:11.957Z,9.17
2023-05-17T00:09:38.699Z,9.12
2023-05-17T00:12:05.587Z,9.12
2023-05-17T00:14:32.107Z,9.03
2023-05-17T00:16:58.682Z,9.04
2023-05-17T00:19:25.813Z,9.04
2023-05-17T00:21:52.513Z,8.94
2023-05-17T00:24:19.109Z,8.97
2023-05-17T00:26:45.566Z,8.89
2023-05-17T00:29:12.278Z,8.94
2023-05-17T00:31:38.744Z,8.93
2023-05-17T00:34:05.271Z,8.90
2023-05-17T00:36:31.842Z,8.79
2023-05-17T00:38:58.454Z,8.71
2023-05-17T00:41:25.107Z,8.73
2023-05-17T00:43:52.451Z,8.72
2023-05-17T00:46:19.015Z,8.73
2023-05-17T00:48:45.642Z,8.91
2023-05-17T00:51:14.577Z,8.93
2023-05-17T00:53:41.054Z,8.92
2023-05-17T00:56:07.839Z,8.90
2023-05-17T00:58:36.821Z,9.02
2023-05-17T01:01:05.294Z,9.09
2023-05-17T01:03:31.957Z,9.10
2023-05-17T01:05:58.772Z,9.17
2023-05-17T01:08:25.432Z,9.06
2023-05-17T01:11:07.787Z,9.07
2023-05-17T01:13:42.429Z,8.97
2023-05-17T01:16:18.267Z,8.85
2023-05-17T01:18:57.369Z,8.85
2023-05-17T01:21:39.666Z,8.89
2023-05-17T01:24:26.371Z,8.92
2023-05-17T01:26:54.895Z,8.79
2023-05-17T01:29:26.381Z,8.78
2023-05-17T01:31:57.537Z,8.76
2023-05-17T01:34:26.332Z,8.66
2023-05-17T01:36:52.917Z,8.60
2023-05-17T01:39:19.497Z,8.64
2023-05-17T01:41:55.407Z,8.64
2023-05-17T01:44:45.676Z,8.53
2023-05-17T01:47:19.142Z,8.52
2023-05-17T01:49:53.000Z,8.52
2023-05-17T01:52:31.922Z,8.48
2023-05-17T01:55:34.396Z,8.49
2023-05-17T01:58:06.254Z,8.51
2023-05-17T02:00:33.129Z,8.52
2023-05-17T02:02:59.667Z,8.47
2023-05-17T02:05:26.441Z,8.51
2023-05-17T02:07:53.105Z,8.49
2023-05-17T02:10:19.923Z,8.45
2023-05-17T02:12:46.385Z,8.39
2023-05-17T02:15:13.783Z,8.40
2023-05-17T02:17:40.817Z,8.43
2023-05-17T02:20:08.750Z,8.42
2023-05-17T02:22:35.941Z,8.41
2023-05-17T02:25:02.560Z,8.40
2023-05-17T02:27:29.532Z,8.40
2023-05-17T02:29:56.009Z,8.37
2023-05-17T02:32:23.088Z,8.36
2023-05-17T02:34:49.870Z,8.34
2023-05-17T02:37:16.467Z,8.31
2023-05-17T02:39:44.164Z,8.42
2023-05-17T02:42:10.689Z,8.43
2023-05-17T02:44:37.353Z,8.40
2023-05-17T02:47:04.381Z,8.37
2023-05-17T02:49:30.880Z,8.34
2023-05-17T02:51:57.389Z,8.27
2023-05-17T02:54:23.900Z,8.21
2023-05-17T02:56:50.662Z,8.23
2023-05-17T02:59:17.634Z,8.24
2023-05-17T03:01:44.207Z,8.19
2023-05-17T03:04:10.797Z,8.23
2023-05-17T03:06:38.156Z,8.32
2023-05-17T03:09:04.657Z,8.25
2023-05-17T03:11:31.848Z,8.26
2023-05-17T03:13:59.069Z,8.27
2023-05-17T03:16:27.406Z,8.24
2023-05-17T03:18:54.403Z,8.25
2023-05-17T03:21:21.856Z,8.20
2023-05-17T03:23:50.097Z,8.20
2023-05-17T03:26:19.123Z,8.16
2023-05-17T03:28:49.603Z,8.05
2023-05-17T03:31:17.585Z,8.07
2023-05-17T03:33:44.863Z,8.09
2023-05-17T03:36:11.870Z,8.14
2023-05-17T03:38:38.588Z,8.21
2023-05-17T03:41:05.367Z,8.37
2023-05-17T03:43:31.954Z,8.43
2023-05-17T03:45:59.891Z,8.39
2023-05-17T03:48:28.145Z,8.42
2023-05-17T03:50:55.061Z,8.43
2023-05-17T03:53:21.923Z,8.41
2023-05-17T03:55:48.401Z,8.38
2023-05-17T03:58:16.594Z,8.35
2023-05-17T04:00:43.129Z,8.30
2023-05-17T04:03:15.016Z,8.34
2023-05-17T04:05:42.182Z,8.37
2023-05-17T04:08:09.256Z,8.38
2023-05-17T04:10:35.790Z,8.35
2023-05-17T04:13:04.034Z,8.40
2023-05-17T04:15:30.924Z,8.35
2023-05-17T04:17:57.890Z,8.30
2023-05-17T04:20:24.579Z,8.35
2023-05-17T04:22:51.413Z,8.31
2023-05-17T04:25:18.447Z,8.33
2023-05-17T04:27:46.408Z,8.37
2023-05-17T04:30:14.066Z,8.44
2023-05-17T04:32:40.732Z,8.36
2023-05-17T04:35:07.630Z,8.39
2023-05-17T04:37:34.433Z,8.31
2023-05-17T04:40:10.335Z,8.37
2023-05-17T04:42:37.122Z,8.45
2023-05-17T04:45:05.274Z,8.50
2023-05-17T04:47:32.055Z,8.47
2023-05-17T04:49:58.620Z,8.41
2023-05-17T04:52:25.232Z,8.38
2023-05-17T04:54:52.158Z,8.50
2023-05-17T04:57:19.942Z,8.47
2023-05-17T05:00:07.034Z,8.42
2023-05-17T05:02:34.466Z,8.52
2023-05-17T05:05:04.815Z,8.47
2023-05-17T05:07:31.614Z,8.50
2023-05-17T05:09:58.208Z,8.53
2023-05-17T05:12:25.572Z,8.52
2023-05-17T05:14:52.114Z,8.45
2023-05-17T05:17:19.180Z,8.54
2023-05-17T05:19:46.634Z,8.66
2023-05-17T05:22:13.348Z,8.73
2023-05-17T05:24:41.108Z,8.79
2023-05-17T05:27:07.840Z,8.78
2023-05-17T05:29:35.763Z,8.85
2023-05-17T05:32:02.850Z,8.89
2023-05-17T05:34:31.755Z,8.98
2023-05-17T05:36:59.672Z,9.11
2023-05-17T05:39:27.820Z,9.25
2023-05-17T05:41:54.313Z,9.29
2023-05-17T05:44:20.781Z,9.33
2023-05-17T05:46:48.212Z,9.30
2023-05-17T05:49:14.906Z,9.24
2023-05-17T05:51:42.526Z,9.22
2023-05-17T05:54:09.380Z,9.16
2023-05-17T05:56:36.099Z,9.17
2023-05-17T05:59:04.892Z,9.11
2023-05-17T06:01:31.645Z,9.16
2023-05-17T06:03:58.105Z,9.21
2023-05-17T06:06:24.900Z,9.13
2023-05-17T06:08:51.445Z,9.20
2023-05-17T06:11:18.742Z,9.16
2023-05-17T06:13:45.225Z,9.15
2023-05-17T06:16:11.846Z,9.26
2023-05-17T06:18:38.431Z,9.28
2023-05-17T06:21:05.082Z,9.22
2023-05-17T06:23:31.564Z,9.24
2023-05-17T06:25:58.024Z,9.18
2023-05-17T06:28:24.634Z,9.20
2023-05-17T06:30:51.413Z,9.20
2023-05-17T06:33:18.118Z,9.20
2023-05-17T06:35:55.424Z,9.21
2023-05-17T06:38:23.488Z,9.23
2023-05-17T06:40:54.705Z,9.12
2023-05-17T06:43:21.534Z,9.24
2023-05-17T06:45:48.229Z,9.43
2023-05-17T06:48:15.602Z,9.40
2023-05-17T06:50:42.776Z,9.51
2023-05-17T06:53:09.516Z,9.68
2023-05-17T06:55:36.319Z,9.84
2023-05-17T06:58:02.885Z,9.93
2023-05-17T07:00:29.457Z,10.06
2023-05-17T07:02:59.407Z,9.84
2023-05-17T07:05:28.126Z,9.97
2023-05-17T07:07:54.904Z,9.97
2023-05-17T07:10:21.554Z,10.03
2023-05-17T07:12:48.241Z,9.87
2023-05-17T07:15:14.712Z,9.88
2023-05-17T07:17:41.468Z,9.86
2023-05-17T07:20:08.824Z,9.93
2023-05-17T07:22:37.192Z,9.78
2023-05-17T07:25:05.082Z,9.88
2023-05-17T07:27:31.809Z,9.93
2023-05-17T07:29:58.305Z,10.03
2023-05-17T07:32:24.831Z,10.04
2023-05-17T07:34:51.330Z,10.08
2023-05-17T07:37:17.925Z,9.99
2023-05-17T07:39:44.392Z,10.07
2023-05-17T07:42:11.240Z,10.10
2023-05-17T07:44:37.761Z,10.15
2023-05-17T07:47:04.494Z,10.21
2023-05-17T07:49:31.323Z,10.08
2023-05-17T07:51:57.931Z,9.96
2023-05-17T07:54:27.211Z,9.79
2023-05-17T07:56:55.307Z,9.81
2023-05-17T07:59:22.467Z,9.90
2023-05-17T08:01:49.315Z,9.81
2023-05-17T08:04:16.097Z,9.93
2023-05-17T08:06:43.524Z,9.98
2023-05-17T08:09:11.008Z,9.95
2023-05-17T08:11:37.752Z,10.10
2023-05-17T08:14:05.145Z,10.50
2023-05-17T08:16:31.775Z,10.80
2023-05-17T08:18:58.325Z,10.81
2023-05-17T08:21:27.529Z,10.84
2023-05-17T08:23:54.012Z,10.68
2023-05-17T08:26:20.521Z,10.95
2023-05-17T08:28:47.022Z,11.13
2023-05-17T08:31:13.546Z,11.28
2023-05-17T08:33:40.039Z,11.37
2023-05-17T08:36:08.185Z,11.31
2023-05-17T08:38:35.376Z,11.10
2023-05-17T08:41:03.029Z,11.08
2023-05-17T08:43:30.952Z,11.25
2023-05-17T08:45:58.310Z,11.50
2023-05-17T08:48:31.147Z,11.52
2023-05-17T08:50:58.068Z,11.44
2023-05-17T08:53:25.490Z,11.18
2023-05-17T08:55:58.292Z,11.36
2023-05-17T08:58:29.286Z,11.34
2023-05-17T09:00:56.459Z,11.49
2023-05-17T09:03:24.116Z,11.30
2023-05-17T09:05:54.443Z,11.26
2023-05-17T09:08:22.402Z,10.87
2023-05-17T09:10:49.786Z,10.82
2023-05-17T09:13:16.653Z,10.98
2023-05-17T09:15:44.304Z,10.95
2023-05-17T09:18:17.005Z,10.86
2023-05-17T09:20:51.663Z,11.02
2023-05-17T09:23:20.905Z,10.86
2023-05-17T09:25:49.095Z,10.92
2023-05-17T09:28:18.669Z,11.09
2023-05-17T09:30:49.254Z,11.45
2023-05-17T09:33:18.554Z,11.63
2023-05-17T09:35:45.652Z,11.53
2023-05-17T09:38:13.700Z,11.30
2023-05-17T09:40:41.701Z,11.23
2023-05-17T09:43:09.276Z,11.13
2023-05-17T09:45:36.342Z,11.14
2023-05-17T09:48:19.356Z,11.25
2023-05-17T09:50:50.355Z,11.43
2023-05-17T09:53:23.978Z,11.13
2023-05-17T09:55:53.225Z,11.70
2023-05-17T09:58:19.809Z,12.06
2023-05-17T10:00:53.909Z,12.19
2023-05-17T10:03:21.064Z,11.86
2023-05-17T10:05:52.309Z,11.64
2023-05-17T10:08:23.099Z,11.49
2023-05-17T10:10:53.163Z,11.89
2023-05-17T10:13:24.841Z,12.32
2023-05-17T10:15:53.459Z,12.38
2023-05-17T10:18:20.871Z,12.59
2023-05-17T10:20:48.526Z,12.30
2023-05-17T10:23:16.858Z,12.29
2023-05-17T10:25:43.722Z,12.59
2023-05-17T10:28:10.993Z,12.85
2023-05-17T10:30:38.450Z,12.99
2023-05-17T10:33:05.398Z,12.74
2023-05-17T10:35:34.416Z,13.14
2023-05-17T10:38:00.896Z,13.39
2023-05-17T10:40:30.700Z,12.97
2023-05-17T10:42:58.698Z,11.96
2023-05-17T10:45:27.167Z,11.93
2023-05-17T10:47:54.467Z,11.84
2023-05-17T10:50:23.618Z,11.77
2023-05-17T10:52:52.908Z,12.06
2023-05-17T10:55:25.027Z,12.13
2023-05-17T10:58:11.338Z,12.54
2023-05-17T11:00:42.308Z,12.71
2023-05-17T11:03:23.130Z,13.02
2023-05-17T11:06:13.166Z,13.44
2023-05-17T11:09:05.442Z,13.31
2023-05-17T11:11:32.054Z,13.47
2023-05-17T11:14:03.859Z,13.88
2023-05-17T11:16:38.117Z,13.81
2023-05-17T11:19:10.278Z,13.44
2023-05-17T11:21:45.696Z,13.38
2023-05-17T11:24:16.155Z,13.10
2023-05-17T11:26:45.619Z,12.64
2023-05-17T11:29:12.425Z,12.21
2023-05-17T11:31:51.630Z,12.28
2023-05-17T11:34:18.633Z,12.34
2023-05-17T11:36:53.375Z,12.03
2023-05-17T11:39:24.102Z,12.26
2023-05-17T11:41:55.965Z,12.98
2023-05-17T11:44:30.474Z,13.48
2023-05-17T11:47:12.069Z,13.85
2023-05-17T11:49:39.468Z,13.79
2023-05-17T11:52:07.089Z,13.54
2023-05-17T11:54:34.890Z,13.44
2023-05-17T11:57:03.722Z,13.19
2023-05-17T11:59:38.557Z,12.59
2023-05-17T12:02:05.767Z,12.13
2023-05-17T12:04:39.011Z,11.85
2023-05-17T12:07:09.893Z,12.01
2023-05-17T12:09:38.481Z,12.86
2023-05-17T12:12:06.300Z,13.64
2023-05-17T12:14:32.909Z,13.84
2023-05-17T12:17:00.926Z,13.90
2023-05-17T12:19:29.905Z,13.76
2023-05-17T12:22:15.095Z,13.84
2023-05-17T12:24:43.027Z,13.73
2023-05-17T12:27:10.023Z,13.91
2023-05-17T12:29:36.550Z,13.82
2023-05-17T12:32:04.385Z,14.02
2023-05-17T12:34:31.201Z,14.02
2023-05-17T12:36:58.217Z,13.71
2023-05-17T12:39:25.168Z,14.60
2023-05-17T12:41:52.666Z,14.37
2023-05-17T12:44:20.537Z,14.76
2023-05-17T12:46:57.596Z,14.19
2023-05-17T12:49:24.246Z,13.88
2023-05-17T12:51:50.988Z,13.96
2023-05-17T12:54:23.480Z,13.46
2023-05-17T12:56:50.037Z,13.27
2023-05-17T12:59:18.025Z,13.05
2023-05-17T13:02:05.571Z,12.83
2023-05-17T13:04:34.329Z,12.98
2023-05-17T13:07:04.712Z,13.46
2023-05-17T13:09:32.551Z,13.78
2023-05-17T13:12:00.166Z,13.67
2023-05-17T13:14:48.535Z,13.36
2023-05-17T13:17:15.061Z,13.20
2023-05-17T13:19:42.053Z,13.58
2023-05-17T13:22:08.880Z,14.03
2023-05-17T13:24:37.708Z,14.71
2023-05-17T13:27:04.892Z,15.70
2023-05-17T13:29:39.505Z,15.77
2023-05-17T13:32:09.266Z,15.39
2023-05-17T13:34:36.080Z,14.79
2023-05-17T13:37:02.704Z,14.65
2023-05-17T13:39:29.168Z,14.33
2023-05-17T13:41:55.770Z,13.46
2023-05-17T13:44:22.272Z,13.17
2023-05-17T13:46:48.762Z,13.21
2023-05-17T13:49:15.287Z,13.11
2023-05-17T13:51:42.836Z,13.16
2023-05-17T13:54:10.431Z,13.09
2023-05-17T13:56:36.953Z,13.39
2023-05-17T13:59:03.576Z,13.28
2023-05-17T14:01:30.409Z,13.02
2023-05-17T14:03:57.192Z,13.16
2023-05-17T14:06:23.903Z,13.04
2023-05-17T14:08:50.542Z,13.08
2023-05-17T14:11:17.083Z,12.87
2023-05-17T14:13:43.506Z,12.89
2023-05-17T14:16:10.040Z,12.78
2023-05-17T14:18:37.292Z,12.57
2023-05-17T14:21:04.254Z,12.53
2023-05-17T14:23:30.829Z,12.24
2023-05-17T14:25:57.740Z,12.37
2023-05-17T14:28:24.648Z,12.04
2023-05-17T14:30:53.259Z,12.00
2023-05-17T14:33:20.046Z,12.25
2023-05-17T14:35:46.593Z,12.58
2023-05-17T14:38:13.232Z,12.65
2023-05-17T14:40:39.711Z,12.41
2023-05-17T14:43:06.378Z,12.31
2023-05-17T14:45:32.910Z,12.39
2023-05-17T14:47:59.626Z,12.25
2023-05-17T14:50:26.566Z,12.19
2023-05-17T14:52:53.419Z,12.28
2023-05-17T14:55:19.949Z,12.47
2023-05-17T14:57:46.625Z,12.74
2023-05-17T15:00:13.579Z,12.70
2023-05-17T15:02:40.268Z,12.85
2023-05-17T15:05:07.261Z,12.58
2023-05-17T15:07:34.465Z,12.50
2023-05-17T15:10:01.347Z,12.46
2023-05-17T15:12:28.385Z,12.39
2023-05-17T15:14:54.832Z,12.23
2023-05-17T15:17:22.281Z,12.19
2023-05-17T15:19:49.197Z,12.02
2023-05-17T15:22:16.072Z,12.07
2023-05-17T15:24:42.809Z,11.99
2023-05-17T15:27:12.698Z,11.76
2023-05-17T15:29:40.794Z,11.91
2023-05-17T15:32:07.508Z,12.19
2023-05-17T15:34:34.107Z,12.38
2023-05-17T15:37:00.789Z,12.26
2023-05-17T15:39:27.902Z,12.13
2023-05-17T15:41:54.422Z,12.01
2023-05-17T15:44:23.684Z,11.90
2023-05-17T15:46:50.842Z,11.86
2023-05-17T15:49:17.346Z,11.51
2023-05-17T15:51:43.889Z,11.45
2023-05-17T15:54:10.452Z,11.36
2023-05-17T15:56:38.284Z,11.17
2023-05-17T15:59:05.776Z,11.31
2023-05-17T16:01:32.308Z,11.38
2023-05-17T16:03:58.777Z,11.68
2023-05-17T16:06:25.563Z,11.85
2023-05-17T16:08:53.164Z,11.67
2023-05-17T16:11:21.531Z,11.86
2023-05-17T16:13:47.959Z,11.85
2023-05-17T16:16:14.761Z,11.84
2023-05-17T16:18:41.400Z,11.84
2023-05-17T16:21:08.134Z,11.79
2023-05-17T16:23:34.582Z,11.91
2023-05-17T16:26:01.449Z,11.98
2023-05-17T16:28:28.005Z,12.00
2023-05-17T16:30:54.589Z,11.83
2023-05-17T16:33:21.300Z,12.08
2023-05-17T16:35:48.614Z,12.04
2023-05-17T16:38:15.510Z,11.78
2023-05-17T16:40:42.185Z,11.69
2023-05-17T16:43:08.767Z,11.55
2023-05-17T16:45:35.565Z,11.61
2023-05-17T16:48:02.101Z,11.52
2023-05-17T16:50:28.838Z,11.50
2023-05-17T16:52:55.534Z,11.33
2023-05-17T16:55:22.191Z,11.26
2023-05-17T16:57:48.657Z,11.25
2023-05-17T17:00:15.686Z,11.35
2023-05-17T17:02:42.203Z,11.40
2023-05-17T17:05:10.290Z,11.21
2023-05-17T17:07:36.766Z,11.04
2023-05-17T17:10:03.570Z,11.09
2023-05-17T17:12:30.128Z,11.13
2023-05-17T17:14:57.252Z,11.04
2023-05-17T17:17:23.781Z,11.01
2023-05-17T17:19:50.391Z,10.94
2023-05-17T17:22:16.845Z,10.84
2023-05-17T17:24:44.418Z,10.79
2023-05-17T17:27:11.583Z,10.81
2023-05-17T17:29:38.395Z,10.77
2023-05-17T17:32:05.396Z,10.87
2023-05-17T17:34:31.963Z,10.85
2023-05-17T17:36:58.434Z,10.65
2023-05-17T17:39:25.051Z,10.63
2023-05-17T17:41:51.538Z,10.62
2023-05-17T17:44:19.417Z,10.74
2023-05-17T17:46:46.035Z,10.93
2023-05-17T17:49:12.605Z,10.99
2023-05-17T17:51:39.171Z,10.73
2023-05-17T17:54:07.326Z,10.84
2023-05-17T17:56:33.884Z,10.85
2023-05-17T17:59:00.657Z,10.79
2023-05-17T18:01:27.616Z,10.85
2023-05-17T18:03:54.174Z,10.98
2023-05-17T18:06:20.820Z,10.86
2023-05-17T18:08:47.291Z,10.82
2023-05-17T18:11:13.783Z,10.87
2023-05-17T18:13:40.365Z,10.74
2023-05-17T18:16:06.919Z,10.72
2023-05-17T18:18:33.726Z,10.80
2023-05-17T18:21:00.489Z,10.83
2023-05-17T18:23:26.977Z,10.84
2023-05-17T18:25:53.572Z,10.79
2023-05-17T18:28:29.960Z,10.89
2023-05-17T18:31:04.553Z,10.86
2023-05-17T18:33:31.514Z,10.87
2023-05-17T18:35:58.261Z,10.89
2023-05-17T18:38:24.728Z,10.82
2023-05-17T18:40:51.228Z,10.81
2023-05-17T18:43:17.716Z,10.78
2023-05-17T18:45:44.353Z,10.75
2023-05-17T18:48:10.983Z,10.73
2023-05-17T18:50:37.528Z,10.72
2023-05-17T18:53:04.075Z,10.69
2023-05-17T18:55:30.928Z,10.66
2023-05-17T18:57:57.453Z,10.54
2023-05-17T19:00:23.981Z,10.38
2023-05-17T19:02:50.584Z,10.32
2023-05-17T19:05:17.170Z,10.31
2023-05-17T19:07:44.250Z,10.36
2023-05-17T19:10:11.058Z,10.38
2023-05-17T19:12:37.546Z,10.43
2023-05-17T19:15:04.610Z,10.51
2023-05-17T19:17:31.237Z,10.43
2023-05-17T19:19:57.997Z,10.48
2023-05-17T19:22:24.470Z,10.50
2023-05-17T19:24:51.294Z,10.49
2023-05-17T19:27:19.617Z,10.31
2023-05-17T19:29:47.174Z,10.25
2023-05-17T19:32:13.913Z,10.28
2023-05-17T19:34:40.536Z,10.31
2023-05-17T19:37:07.154Z,10.33
2023-05-17T19:39:33.796Z,10.36
2023-05-17T19:42:00.348Z,10.45
2023-05-17T19:44:27.114Z,10.36
2023-05-17T19:46:53.737Z,10.39
2023-05-17T19:49:20.477Z,10.31
2023-05-17T19:51:48.070Z,10.29
2023-05-17T19:54:15.194Z,10.17
2023-05-17T19:56:41.668Z,10.19
2023-05-17T19:59:08.342Z,10.18
2023-05-17T20:01:34.937Z,10.23
2023-05-17T20:04:01.751Z,10.20
2023-05-17T20:06:28.338Z,10.15
2023-05-17T20:08:54.856Z,10.12
2023-05-17T20:11:21.552Z,10.11
2023-05-17T20:13:48.229Z,10.07
2023-05-17T20:16:14.900Z,10.18
2023-05-17T20:18:43.568Z,10.15
2023-05-17T20:21:12.564Z,10.15
2023-05-17T20:23:39.609Z,10.14
2023-05-17T20:26:06.150Z,10.07
2023-05-17T20:28:32.929Z,10.03
2023-05-17T20:30:59.623Z,9.99
2023-05-17T20:33:26.422Z,9.99
2023-05-17T20:35:53.704Z,9.95
2023-05-17T20:38:21.654Z,10.00
2023-05-17T20:40:48.371Z,9.97
2023-05-17T20:43:16.719Z,9.95
2023-05-17T20:45:43.614Z,9.85
2023-05-17T20:48:10.360Z,9.81
2023-05-17T20:50:37.032Z,9.76
2023-05-17T20:53:03.771Z,9.69
2023-05-17T20:55:30.438Z,9.76
2023-05-17T20:57:57.718Z,9.70
2023-05-17T21:00:24.701Z,9.62
2023-05-17T21:02:51.419Z,9.61
2023-05-17T21:05:17.970Z,9.68
2023-05-17T21:07:46.696Z,9.73
2023-05-17T21:10:13.320Z,9.66
2023-05-17T21:12:39.883Z,9.65
2023-05-17T21:15:16.519Z,9.71
2023-05-17T21:17:44.085Z,9.74
2023-05-17T21:20:11.377Z,9.67
2023-05-17T21:22:37.975Z,9.64
2023-05-17T21:25:05.526Z,9.58
2023-05-17T21:27:33.960Z,9.55
2023-05-17T21:30:01.555Z,9.56
2023-05-17T21:32:28.038Z,9.59
2023-05-17T21:34:54.820Z,9.51
2023-05-17T21:37:21.395Z,9.46
2023-05-17T21:39:47.974Z,9.41
2023-05-17T21:42:14.583Z,9.30
2023-05-17T21:44:41.285Z,9.30
2023-05-17T21:47:07.927Z,9.27
2023-05-17T21:49:34.657Z,9.21
2023-05-17T21:52:01.139Z,9.19
2023-05-17T21:54:27.895Z,9.11
2023-05-17T21:56:54.376Z,9.08
2023-05-17T21:59:20.928Z,9.09
2023-05-17T22:01:47.488Z,9.04
2023-05-17T22:04:14.221Z,8.97
2023-05-17T22:06:40.711Z,8.97
2023-05-17T22:09:07.355Z,8.86
2023-05-17T22:11:38.100Z,8.79
2023-05-17T22:14:07.951Z,8.83
2023-05-17T22:16:36.205Z,8.74
2023-05-17T22:19:03.909Z,8.71
2023-05-17T22:21:31.818Z,8.67
2023-05-17T22:23:59.180Z,8.57
2023-05-17T22:26:25.760Z,8.49
2023-05-17T22:28:52.466Z,8.39
2023-05-17T22:31:19.591Z,8.41
2023-05-17T22:33:46.922Z,8.46
2023-05-17T22:36:14.091Z,8.45
2023-05-17T22:38:42.607Z,8.42
2023-05-17T22:41:10.154Z,8.33
2023-05-17T22:43:37.141Z,8.23
2023-05-17T22:46:04.197Z,8.18
2023-05-17T22:48:32.127Z,8.17
2023-05-17T22:51:01.870Z,8.14
2023-05-17T22:53:29.951Z,8.12
2023-05-17T22:55:56.855Z,8.16
2023-05-17T22:58:23.888Z,8.12
2023-05-17T23:00:51.218Z,8.16
2023-05-17T23:03:19.430Z,8.10
2023-05-17T23:05:45.903Z,8.12
2023-05-17T23:08:15.462Z,8.15
2023-05-17T23:10:45.787Z,8.17
2023-05-17T23:13:13.083Z,8.16
2023-05-17T23:15:40.529Z,8.22
2023-05-17T23:18:07.265Z,8.30
2023-05-17T23:20:34.838Z,8.32
2023-05-17T23:23:01.833Z,8.36
2023-05-17T23:25:29.053Z,8.30
2023-05-17T23:27:58.102Z,8.37
2023-05-17T23:30:26.155Z,8.36
2023-05-17T23:32:53.045Z,8.43
2023-05-17T23:35:19.523Z,8.37
2023-05-17T23:37:46.159Z,8.37
2023-05-17T23:40:14.570Z,8.49
2023-05-17T23:42:41.598Z,8.53
2023-05-17T23:45:09.310Z,8.50
2023-05-17T23:47:35.990Z,8.47
2023-05-17T23:50:03.247Z,8.51
2023-05-17T23:52:32.707Z,8.54
2023-05-17T23:54:59.517Z,8.44
2023-05-17T23:57:26.095Z,8.34
2023-05-17T23:59:52.813Z,8.38
